Weather at Middleton Municipal Morey Field

Public forecast

Using degrees Fahrenheit for public forecast. Weather courtesy of forecast.io.

Current aviation weather report (METAR) for Middleton Municipal Morey Field

Retrieved 2021/10/15 23:15 UTC (19 minutes ago):

KC29 152315Z AUTO 00000KT 10SM CLR 13/05 A2989 RMK AO1 T01310052

Closest aviation forecast (TAF) to Middleton Municipal Morey Field

Closest forecast is Dane County Regional Truax Field, 8.6 nm (16.0 km) E. Retrieved 2021/10/15 18:22 UTC (5 hours ago):

TAF KMSN 151720Z 1518/1618 30006KT P6SM OVC070 FM160000 26007KT P6SM BKN200 FM161400 29011G18KT P6SM FEW250